Time;durP1;ratioP1;P1;durP2;ratioP2;P2;SDS_P1;SDS_P2;PMS_P1;PMS_P2;Temp;Humidity;BMP_temperature;BMP_pressure;BME280_temperature;BME280_humidity;BME280_pressure;Samples;Min_cycle;Max_cycle;Signal;HPM_P1;HPM_P2
2022/11/07 00:00:07;;;;;;;;;;;20.10;68.60;;;;;;5040635;28;899;-69
2022/11/07 00:02:32;;;;;;;;;;;20.10;69.40;;;;;;5018612;28;1050;-69
2022/11/07 00:04:57;;;;;;;;;;;20.10;68.60;;;;;;5038326;28;1050;-69
2022/11/07 00:07:23;;;;;;;;;;;20.10;68.60;;;;;;5037045;28;1353;-69
2022/11/07 00:09:48;;;;;;;;;;;20.10;68.60;;;;;;5039911;28;828;-69
2022/11/07 00:12:14;;;;;;;;;;;20.10;68.60;;;;;;5040391;28;1336;-69
2022/11/07 00:14:39;;;;;;;;;;;20.10;68.60;;;;;;5038875;28;985;-70
2022/11/07 00:17:06;;;;;;;;;;;20.10;68.60;;;;;;5037583;28;1902;-70
2022/11/07 00:19:31;;;;;;;;;;;20.10;68.60;;;;;;5039865;28;854;-70
2022/11/07 00:21:57;;;;;;;;;;;20.10;68.60;;;;;;5039394;28;818;-70
2022/11/07 00:24:22;;;;;;;;;;;20.10;68.70;;;;;;5035722;28;894;-69
2022/11/07 00:26:48;;;;;;;;;;;20.10;68.70;;;;;;5040680;28;1340;-70
2022/11/07 00:29:13;;;;;;;;;;;20.10;68.70;;;;;;5038927;28;886;-70
2022/11/07 00:31:39;;;;;;;;;;;20.10;68.70;;;;;;5041510;28;1394;-70
2022/11/07 00:34:04;;;;;;;;;;;20.10;68.70;;;;;;5036601;28;1070;-70
2022/11/07 00:36:30;;;;;;;;;;;20.10;68.70;;;;;;5037940;28;1906;-70
2022/11/07 00:38:55;;;;;;;;;;;20.10;68.70;;;;;;5039660;28;851;-70
2022/11/07 00:41:21;;;;;;;;;;;20.10;68.70;;;;;;5022916;28;1257;-70
2022/11/07 00:43:46;;;;;;;;;;;20.10;68.70;;;;;;5035131;28;1022;-69
2022/11/07 00:46:12;;;;;;;;;;;20.00;68.60;;;;;;5040260;28;1259;-70
2022/11/07 00:48:37;;;;;;;;;;;20.10;68.70;;;;;;5040383;28;903;-71
2022/11/07 00:51:04;;;;;;;;;;;20.00;68.60;;;;;;5040495;28;806;-69
2022/11/07 00:53:29;;;;;;;;;;;20.10;68.70;;;;;;5039412;28;1072;-69
2022/11/07 00:55:59;;;;;;;;;;;20.10;68.70;;;;;;5038610;28;1973;-69
2022/11/07 00:58:24;;;;;;;;;;;20.00;68.60;;;;;;5039808;28;862;-70
2022/11/07 01:00:49;;;;;;;;;;;20.00;68.70;;;;;;5037843;28;955;-69
2022/11/07 01:06:00;;;;;;;;;;;20.00;68.70;;;;;;5037628;28;1265;-69
2022/11/07 01:08:25;;;;;;;;;;;20.00;68.60;;;;;;5020194;28;911;-69
2022/11/07 01:10:51;;;;;;;;;;;20.00;68.70;;;;;;5037180;28;1055;-70
2022/11/07 01:13:16;;;;;;;;;;;20.10;68.70;;;;;;5037786;28;894;-69
2022/11/07 01:15:42;;;;;;;;;;;20.00;68.60;;;;;;5038596;28;1957;-69
2022/11/07 01:18:07;;;;;;;;;;;20.00;68.60;;;;;;5037482;28;788;-70
2022/11/07 01:20:33;;;;;;;;;;;20.00;68.60;;;;;;5035980;28;851;-70
2022/11/07 01:22:58;;;;;;;;;;;20.00;68.70;;;;;;5040632;28;836;-69
2022/11/07 01:25:24;;;;;;;;;;;20.00;68.60;;;;;;5035817;28;1275;-70
2022/11/07 01:27:49;;;;;;;;;;;20.00;68.60;;;;;;5040456;28;847;-70
2022/11/07 01:30:15;;;;;;;;;;;20.00;68.60;;;;;;5037312;28;855;-70
2022/11/07 01:32:40;;;;;;;;;;;20.00;68.70;;;;;;5041183;28;1495;-69
2022/11/07 01:35:06;;;;;;;;;;;20.00;68.70;;;;;;5035015;28;1074;-70
2022/11/07 01:37:31;;;;;;;;;;;20.00;68.70;;;;;;5037742;28;1955;-69
2022/11/07 01:39:56;;;;;;;;;;;20.00;68.70;;;;;;5038749;28;1010;-70
2022/11/07 01:42:22;;;;;;;;;;;20.00;68.70;;;;;;5041519;28;1062;-70
2022/11/07 01:44:48;;;;;;;;;;;20.00;68.70;;;;;;5035163;28;787;-70
2022/11/07 01:47:14;;;;;;;;;;;20.00;68.70;;;;;;5038531;28;1287;-70
2022/11/07 01:49:40;;;;;;;;;;;20.00;68.70;;;;;;5033473;28;958;-70
2022/11/07 01:52:07;;;;;;;;;;;20.00;68.70;;;;;;5022619;28;1608;-70
2022/11/07 01:54:52;;;;;;;;;;;20.00;68.70;;;;;;5020894;28;825;-69
2022/11/07 01:57:19;;;;;;;;;;;20.00;68.70;;;;;;5039682;28;1894;-70
2022/11/07 01:59:45;;;;;;;;;;;20.00;68.70;;;;;;5038809;28;875;-69
2022/11/07 02:02:10;;;;;;;;;;;20.00;68.70;;;;;;5039744;28;871;-69
2022/11/07 02:04:36;;;;;;;;;;;20.00;68.80;;;;;;5020987;28;927;-70
2022/11/07 02:07:12;;;;;;;;;;;20.00;68.70;;;;;;5038817;28;1336;-70
2022/11/07 02:09:37;;;;;;;;;;;20.00;68.80;;;;;;5021876;28;887;-70
2022/11/07 02:12:03;;;;;;;;;;;20.00;68.80;;;;;;5041314;28;1337;-69
2022/11/07 02:14:28;;;;;;;;;;;20.00;68.80;;;;;;5036726;28;1718;-69
2022/11/07 02:16:53;;;;;;;;;;;20.00;68.80;;;;;;5035321;28;1903;-70
2022/11/07 02:19:35;;;;;;;;;;;20.00;68.80;;;;;;5037675;28;890;-69
2022/11/07 02:22:16;;;;;;;;;;;20.00;68.80;;;;;;5019551;28;1010;-70
2022/11/07 02:24:41;;;;;;;;;;;20.00;68.80;;;;;;5038319;28;956;-69
2022/11/07 02:27:09;;;;;;;;;;;20.00;68.80;;;;;;5037772;28;1293;-70
2022/11/07 02:29:34;;;;;;;;;;;20.00;68.80;;;;;;5039123;28;820;-70
2022/11/07 02:32:01;;;;;;;;;;;20.00;68.80;;;;;;5039820;28;990;-69
2022/11/07 02:34:26;;;;;;;;;;;20.00;68.80;;;;;;5024409;28;815;-70
2022/11/07 02:36:52;;;;;;;;;;;20.00;68.80;;;;;;5036046;28;1902;-70
2022/11/07 02:39:17;;;;;;;;;;;20.00;68.90;;;;;;5038181;28;869;-70
2022/11/07 02:41:42;;;;;;;;;;;20.00;68.80;;;;;;5034151;28;836;-70
2022/11/07 02:44:08;;;;;;;;;;;20.00;68.90;;;;;;5038225;28;896;-69
2022/11/07 02:46:34;;;;;;;;;;;20.00;68.90;;;;;;5037174;28;1295;-69
2022/11/07 02:48:59;;;;;;;;;;;20.00;68.90;;;;;;5037716;28;887;-69
2022/11/07 02:51:25;;;;;;;;;;;20.00;68.90;;;;;;5018097;28;844;-69
2022/11/07 02:53:50;;;;;;;;;;;20.00;68.90;;;;;;5039916;28;912;-69
2022/11/07 02:56:16;;;;;;;;;;;20.00;68.90;;;;;;5034724;28;2031;-70
2022/11/07 02:58:41;;;;;;;;;;;20.00;68.90;;;;;;5039538;28;863;-69
2022/11/07 03:01:07;;;;;;;;;;;20.00;68.90;;;;;;5041394;28;930;-70
2022/11/07 03:03:37;;;;;;;;;;;20.00;68.90;;;;;;5036996;28;1034;-69
2022/11/07 03:06:03;;;;;;;;;;;20.00;68.90;;;;;;5037843;28;1381;-69
2022/11/07 03:08:29;;;;;;;;;;;20.00;68.90;;;;;;5038568;28;1443;-69
2022/11/07 03:10:54;;;;;;;;;;;20.00;68.90;;;;;;5042363;28;940;-69
2022/11/07 03:13:20;;;;;;;;;;;20.00;68.90;;;;;;5040243;28;845;-69
2022/11/07 03:15:45;;;;;;;;;;;20.00;69.00;;;;;;5042231;28;1918;-69
2022/11/07 03:18:11;;;;;;;;;;;20.00;68.90;;;;;;5040298;28;1624;-69
2022/11/07 03:20:36;;;;;;;;;;;20.00;68.90;;;;;;5042950;28;852;-69
2022/11/07 03:23:01;;;;;;;;;;;20.00;69.00;;;;;;5044536;28;804;-69
2022/11/07 03:25:27;;;;;;;;;;;20.00;69.00;;;;;;5042061;28;1351;-70
2022/11/07 03:27:52;;;;;;;;;;;20.00;68.90;;;;;;5042501;28;792;-70
2022/11/07 03:30:18;;;;;;;;;;;20.00;68.90;;;;;;5041498;28;872;-69
2022/11/07 03:32:43;;;;;;;;;;;20.00;69.00;;;;;;5043439;28;1562;-70
2022/11/07 03:35:09;;;;;;;;;;;20.00;69.00;;;;;;5041291;28;1900;-70
2022/11/07 03:37:34;;;;;;;;;;;20.00;69.00;;;;;;5039437;28;1973;-69
2022/11/07 03:39:59;;;;;;;;;;;20.00;69.00;;;;;;5038479;28;1018;-70
2022/11/07 03:42:25;;;;;;;;;;;20.00;69.00;;;;;;5041702;28;815;-70
2022/11/07 03:44:50;;;;;;;;;;;20.00;69.00;;;;;;5041579;28;868;-70
2022/11/07 03:47:16;;;;;;;;;;;20.00;69.00;;;;;;5039512;28;1304;-69
2022/11/07 03:49:41;;;;;;;;;;;20.00;69.00;;;;;;5039865;28;899;-70
2022/11/07 03:52:07;;;;;;;;;;;20.00;69.00;;;;;;5042412;28;937;-69
2022/11/07 03:54:32;;;;;;;;;;;20.00;69.00;;;;;;5039958;28;1014;-69
2022/11/07 03:56:57;;;;;;;;;;;20.00;69.00;;;;;;5039807;28;1989;-70
2022/11/07 03:59:23;;;;;;;;;;;20.00;69.10;;;;;;5042025;28;900;-70
2022/11/07 04:01:48;;;;;;;;;;;20.00;69.00;;;;;;5037777;28;879;-69
2022/11/07 04:04:14;;;;;;;;;;;19.90;69.00;;;;;;5039058;28;907;-69
2022/11/07 04:06:39;;;;;;;;;;;20.00;69.10;;;;;;5039339;28;1358;-70
2022/11/07 04:09:05;;;;;;;;;;;19.90;69.00;;;;;;5037897;28;982;-70
2022/11/07 04:19:43;;;;;;;;;;;19.90;69.00;;;;;;5038535;28;900;-70
2022/11/07 04:22:08;;;;;;;;;;;19.90;69.10;;;;;;5036340;28;1041;-70
2022/11/07 04:24:33;;;;;;;;;;;19.90;69.00;;;;;;5040977;28;1014;-70
2022/11/07 04:29:43;;;;;;;;;;;19.90;69.10;;;;;;5041565;28;810;-69
2022/11/07 04:32:09;;;;;;;;;;;19.90;69.10;;;;;;5039956;28;1018;-70
2022/11/07 04:34:34;;;;;;;;;;;19.90;69.10;;;;;;5038951;28;1045;-70
2022/11/07 04:36:59;;;;;;;;;;;19.90;69.10;;;;;;5038114;28;1911;-70
2022/11/07 04:39:25;;;;;;;;;;;19.90;69.10;;;;;;5038488;28;945;-70
2022/11/07 04:41:50;;;;;;;;;;;19.90;69.10;;;;;;5036131;28;859;-69
2022/11/07 04:44:16;;;;;;;;;;;19.90;69.10;;;;;;5056546;28;815;-69
2022/11/07 04:46:41;;;;;;;;;;;19.90;69.10;;;;;;5038513;28;1284;-69
2022/11/07 04:49:06;;;;;;;;;;;19.90;69.10;;;;;;5038963;28;891;-70
2022/11/07 04:51:32;;;;;;;;;;;19.90;69.10;;;;;;5039914;28;903;-70
2022/11/07 04:53:57;;;;;;;;;;;19.90;69.10;;;;;;5054778;28;1327;-70
2022/11/07 04:56:23;;;;;;;;;;;19.90;69.10;;;;;;5035985;28;1898;-70
2022/11/07 04:58:48;;;;;;;;;;;19.90;69.10;;;;;;5037545;28;902;-70
2022/11/07 05:01:14;;;;;;;;;;;19.90;69.10;;;;;;5038751;28;860;-70
2022/11/07 05:03:39;;;;;;;;;;;19.90;69.10;;;;;;5035803;28;847;-70
2022/11/07 05:06:05;;;;;;;;;;;19.90;69.10;;;;;;5038929;28;1322;-69
2022/11/07 05:08:30;;;;;;;;;;;19.90;69.10;;;;;;5037290;28;1275;-70
2022/11/07 05:10:55;;;;;;;;;;;19.90;69.10;;;;;;5043217;28;1289;-69
2022/11/07 05:13:21;;;;;;;;;;;19.90;69.10;;;;;;5039793;28;824;-70
2022/11/07 05:15:46;;;;;;;;;;;19.90;69.10;;;;;;5036990;28;1898;-70
2022/11/07 05:18:12;;;;;;;;;;;20.00;69.10;;;;;;5038937;28;1109;-70
2022/11/07 05:20:37;;;;;;;;;;;20.00;69.00;;;;;;5042400;28;804;-69
2022/11/07 05:23:13;;;;;;;;;;;20.00;68.90;;;;;;5037739;28;879;-70
2022/11/07 05:25:39;;;;;;;;;;;20.00;68.80;;;;;;5038813;28;1282;-69
2022/11/07 05:28:05;;;;;;;;;;;20.10;68.80;;;;;;5036837;28;812;-70
2022/11/07 05:30:30;;;;;;;;;;;20.10;69.50;;;;;;5036590;28;812;-70
2022/11/07 05:32:56;;;;;;;;;;;20.10;68.60;;;;;;5037067;28;1471;-70
2022/11/07 05:35:21;;;;;;;;;;;20.10;68.70;;;;;;5035832;28;1909;-70
2022/11/07 05:37:47;;;;;;;;;;;20.20;68.50;;;;;;5026887;28;1169;-69
2022/11/07 05:40:13;;;;;;;;;;;20.20;68.30;;;;;;5033587;28;860;-70
2022/11/07 05:42:38;;;;;;;;;;;20.20;68.20;;;;;;5042485;28;800;-70
2022/11/07 05:45:04;;;;;;;;;;;20.20;68.20;;;;;;5037328;28;1259;-70
2022/11/07 05:47:29;;;;;;;;;;;20.20;68.00;;;;;;5038472;28;1311;-70
2022/11/07 05:49:55;;;;;;;;;;;20.30;68.00;;;;;;5033204;28;1124;-70
2022/11/07 05:52:20;;;;;;;;;;;20.30;68.00;;;;;;5034818;28;1234;-69
2022/11/07 05:54:46;;;;;;;;;;;20.30;67.90;;;;;;5036072;28;812;-72
2022/11/07 05:57:11;;;;;;;;;;;20.30;67.80;;;;;;5034822;28;1894;-70
2022/11/07 05:59:36;;;;;;;;;;;20.30;67.80;;;;;;5034703;28;840;-70
2022/11/07 06:02:02;;;;;;;;;;;20.30;67.70;;;;;;5040339;28;1026;-70
2022/11/07 06:04:27;;;;;;;;;;;20.40;67.70;;;;;;5035664;28;871;-71
2022/11/07 06:06:53;;;;;;;;;;;20.30;67.60;;;;;;5033656;28;1258;-70
2022/11/07 06:09:18;;;;;;;;;;;20.40;67.60;;;;;;5038060;28;1018;-70
2022/11/07 06:11:44;;;;;;;;;;;20.40;67.50;;;;;;5038341;28;1270;-70
2022/11/07 06:14:09;;;;;;;;;;;20.50;67.50;;;;;;5039962;28;1199;-70
2022/11/07 06:16:34;;;;;;;;;;;20.50;67.30;;;;;;5036927;28;1965;-70
2022/11/07 06:19:01;;;;;;;;;;;20.60;67.20;;;;;;5039713;28;858;-70
2022/11/07 06:21:26;;;;;;;;;;;20.70;67.20;;;;;;5038054;28;936;-69
2022/11/07 06:23:51;;;;;;;;;;;20.80;67.10;;;;;;5038339;28;895;-69
2022/11/07 06:26:17;;;;;;;;;;;20.90;66.90;;;;;;5035641;28;1253;-69
2022/11/07 06:28:42;;;;;;;;;;;21.00;66.70;;;;;;5036708;28;923;-69
2022/11/07 06:31:08;;;;;;;;;;;21.10;66.40;;;;;;5038365;28;1078;-69
2022/11/07 06:33:33;;;;;;;;;;;21.20;66.10;;;;;;5030700;28;1684;-69
2022/11/07 06:36:09;;;;;;;;;;;21.30;65.90;;;;;;5034784;28;2168;-69
2022/11/07 06:38:34;;;;;;;;;;;21.40;65.60;;;;;;5037426;28;1230;-69
2022/11/07 06:41:04;;;;;;;;;;;21.50;65.30;;;;;;5016584;28;905;-68
2022/11/07 06:43:29;;;;;;;;;;;21.60;65.10;;;;;;5039611;28;1070;-69
2022/11/07 06:45:54;;;;;;;;;;;21.60;64.80;;;;;;5040068;28;1285;-70
2022/11/07 06:48:20;;;;;;;;;;;21.70;64.50;;;;;;5039635;28;816;-68
2022/11/07 06:50:45;;;;;;;;;;;21.70;64.30;;;;;;5040328;28;899;-70
2022/11/07 06:53:11;;;;;;;;;;;21.80;64.10;;;;;;5039448;28;928;-70
2022/11/07 06:55:37;;;;;;;;;;;21.80;63.90;;;;;;5040976;28;1906;-69
2022/11/07 06:58:03;;;;;;;;;;;21.90;63.80;;;;;;5039124;28;1141;-69
2022/11/07 07:00:30;;;;;;;;;;;21.90;63.60;;;;;;5043923;28;812;-70
2022/11/07 07:02:55;;;;;;;;;;;22.00;63.50;;;;;;5040824;28;1034;-69
2022/11/07 07:05:20;;;;;;;;;;;22.00;63.30;;;;;;5041812;28;1415;-69
2022/11/07 07:07:46;;;;;;;;;;;22.00;63.30;;;;;;5041947;28;1010;-70
2022/11/07 07:10:11;;;;;;;;;;;22.00;63.20;;;;;;5043552;28;848;-68
2022/11/07 07:12:37;;;;;;;;;;;22.10;63.20;;;;;;5043340;28;1289;-70
2022/11/07 07:15:02;;;;;;;;;;;22.10;63.20;;;;;;5041703;28;879;-68
2022/11/07 07:17:28;;;;;;;;;;;22.10;63.20;;;;;;5040713;28;1973;-68
2022/11/07 07:19:53;;;;;;;;;;;22.10;63.30;;;;;;5040156;28;928;-69
2022/11/07 07:22:18;;;;;;;;;;;22.10;63.30;;;;;;5039081;28;900;-69
2022/11/07 07:24:44;;;;;;;;;;;22.10;63.40;;;;;;5040969;28;888;-69
2022/11/07 07:27:10;;;;;;;;;;;22.10;63.40;;;;;;5038349;28;1231;-68
2022/11/07 07:29:35;;;;;;;;;;;22.10;63.40;;;;;;5037836;28;765;-69
2022/11/07 07:32:01;;;;;;;;;;;22.00;63.30;;;;;;5038519;28;1271;-69
2022/11/07 07:34:26;;;;;;;;;;;22.10;63.50;;;;;;5038143;28;883;-70
2022/11/07 07:36:52;;;;;;;;;;;22.00;63.40;;;;;;5032565;28;4081;-71
2022/11/07 07:39:17;;;;;;;;;;;22.00;63.40;;;;;;5023655;28;4199;-69
2022/11/07 07:41:43;;;;;;;;;;;22.00;63.50;;;;;;5036646;28;4901;-69
2022/11/07 07:44:08;;;;;;;;;;;22.00;63.50;;;;;;5035512;28;4566;-70
2022/11/07 07:46:34;;;;;;;;;;;22.00;63.60;;;;;;5040000;28;3266;-70
2022/11/07 07:48:59;;;;;;;;;;;22.00;63.60;;;;;;5041991;28;1200;-70
2022/11/07 07:51:25;;;;;;;;;;;21.90;63.60;;;;;;5041974;28;1025;-70
2022/11/07 07:53:50;;;;;;;;;;;21.90;63.60;;;;;;5044258;28;1046;-72
2022/11/07 07:56:16;;;;;;;;;;;21.90;64.40;;;;;;5036895;28;1987;-71
2022/11/07 07:58:42;;;;;;;;;;;21.90;63.70;;;;;;5042699;28;812;-70
2022/11/07 08:01:09;;;;;;;;;;;21.90;63.80;;;;;;5041972;28;839;-70
2022/11/07 08:03:34;;;;;;;;;;;21.80;63.70;;;;;;5039803;28;871;-69
2022/11/07 08:06:00;;;;;;;;;;;21.80;63.80;;;;;;5039994;28;1235;-69
2022/11/07 08:08:25;;;;;;;;;;;21.80;63.90;;;;;;5040455;28;883;-69
2022/11/07 08:10:53;;;;;;;;;;;21.80;64.00;;;;;;5038875;28;996;-69
2022/11/07 08:13:19;;;;;;;;;;;21.80;64.00;;;;;;5040019;28;1585;-70
2022/11/07 08:15:44;;;;;;;;;;;21.80;64.60;;;;;;5007392;28;1965;-70
2022/11/07 08:18:10;;;;;;;;;;;21.80;65.00;;;;;;5042978;28;1569;-70
2022/11/07 08:20:35;;;;;;;;;;;21.70;65.20;;;;;;5042427;28;1359;-70
2022/11/07 08:23:04;;;;;;;;;;;21.70;65.40;;;;;;5040539;28;1286;-71
2022/11/07 08:25:30;;;;;;;;;;;21.70;65.90;;;;;;5023768;28;1714;-70
2022/11/07 08:27:55;;;;;;;;;;;21.70;66.10;;;;;;5040105;28;1425;-70
2022/11/07 08:30:21;;;;;;;;;;;21.70;66.10;;;;;;5036937;28;1404;-70
2022/11/07 08:32:47;;;;;;;;;;;21.70;66.30;;;;;;5041086;28;1346;-70
2022/11/07 08:35:12;;;;;;;;;;;21.70;66.40;;;;;;5035941;28;962;-69
2022/11/07 08:37:37;;;;;;;;;;;21.70;66.50;;;;;;5039845;28;1962;-70
2022/11/07 08:40:03;;;;;;;;;;;21.60;66.40;;;;;;5039071;28;2156;-70
2022/11/07 08:42:28;;;;;;;;;;;21.60;67.40;;;;;;5038766;28;1344;-70
2022/11/07 08:44:54;;;;;;;;;;;21.60;66.90;;;;;;5040362;28;1344;-69
2022/11/07 08:47:19;;;;;;;;;;;21.60;66.90;;;;;;5039228;28;1428;-70
2022/11/07 08:49:45;;;;;;;;;;;21.60;67.10;;;;;;5036633;28;836;-69
2022/11/07 08:52:10;;;;;;;;;;;21.60;67.00;;;;;;5039987;28;885;-70
2022/11/07 08:54:36;;;;;;;;;;;21.60;67.20;;;;;;5038363;28;907;-70
2022/11/07 08:57:01;;;;;;;;;;;21.60;67.30;;;;;;5040211;28;1914;-70
2022/11/07 08:59:28;;;;;;;;;;;21.60;67.30;;;;;;5036731;28;860;-70
2022/11/07 09:01:53;;;;;;;;;;;21.60;67.20;;;;;;5040699;28;851;-70
2022/11/07 09:04:19;;;;;;;;;;;21.60;67.30;;;;;;5038740;28;1015;-71
2022/11/07 09:06:44;;;;;;;;;;;21.50;67.30;;;;;;5040290;28;1335;-70
2022/11/07 09:09:10;;;;;;;;;;;21.50;67.40;;;;;;5038768;28;1022;-69
2022/11/07 09:11:35;;;;;;;;;;;21.50;67.40;;;;;;5037803;28;1345;-70
2022/11/07 09:14:01;;;;;;;;;;;21.60;67.50;;;;;;5037690;28;839;-70
2022/11/07 09:16:26;;;;;;;;;;;21.50;67.60;;;;;;5038804;28;1969;-70
2022/11/07 09:18:52;;;;;;;;;;;21.50;67.70;;;;;;5039718;28;930;-70
2022/11/07 09:21:17;;;;;;;;;;;21.50;67.70;;;;;;5038551;28;925;-70
2022/11/07 09:23:43;;;;;;;;;;;21.50;67.80;;;;;;5020111;28;1448;-69
2022/11/07 09:26:08;;;;;;;;;;;21.50;67.90;;;;;;5036929;28;1316;-69
2022/11/07 09:28:34;;;;;;;;;;;21.50;68.00;;;;;;5038750;28;888;-69
2022/11/07 09:30:59;;;;;;;;;;;21.50;67.90;;;;;;5041964;28;881;-69
2022/11/07 09:33:25;;;;;;;;;;;21.50;68.00;;;;;;5040197;28;1333;-69
2022/11/07 09:35:50;;;;;;;;;;;21.50;67.90;;;;;;5037215;28;1990;-69
2022/11/07 09:38:16;;;;;;;;;;;21.50;67.90;;;;;;5037529;28;844;-69
2022/11/07 09:40:47;;;;;;;;;;;21.50;68.10;;;;;;5039447;28;812;-69
2022/11/07 09:43:13;;;;;;;;;;;21.50;69.00;;;;;;5019980;28;970;-69
2022/11/07 09:45:42;;;;;;;;;;;21.50;68.20;;;;;;5036029;28;1330;-69
2022/11/07 09:48:08;;;;;;;;;;;21.50;68.20;;;;;;5030555;28;1410;-70
2022/11/07 09:50:37;;;;;;;;;;;21.50;68.20;;;;;;5037776;28;907;-69
2022/11/07 09:53:05;;;;;;;;;;;21.50;68.30;;;;;;5041332;28;819;-70
2022/11/07 09:55:32;;;;;;;;;;;21.40;68.40;;;;;;5023856;28;1914;-69
2022/11/07 09:58:02;;;;;;;;;;;21.40;68.40;;;;;;5040906;28;973;-69
2022/11/07 10:00:30;;;;;;;;;;;21.40;68.50;;;;;;5021604;28;1365;-70
2022/11/07 10:02:56;;;;;;;;;;;21.40;68.60;;;;;;5037930;28;916;-70
2022/11/07 10:05:25;;;;;;;;;;;21.40;68.60;;;;;;5039303;28;1292;-70
2022/11/07 10:08:00;;;;;;;;;;;21.40;68.70;;;;;;5020469;28;1101;-70
2022/11/07 10:10:25;;;;;;;;;;;21.40;68.70;;;;;;5038110;28;931;-69
2022/11/07 10:13:01;;;;;;;;;;;21.40;68.90;;;;;;5038543;28;1408;-70
2022/11/07 10:15:27;;;;;;;;;;;21.40;68.90;;;;;;5041359;28;1239;-70
2022/11/07 10:17:56;;;;;;;;;;;21.40;69.00;;;;;;5025947;28;1971;-71
2022/11/07 10:20:39;;;;;;;;;;;21.40;69.20;;;;;;5042765;28;1009;-70
2022/11/07 10:23:08;;;;;;;;;;;21.40;69.30;;;;;;5041304;28;837;-69
2022/11/07 10:25:36;;;;;;;;;;;21.40;69.50;;;;;;5027003;28;1247;-68
2022/11/07 10:28:05;;;;;;;;;;;21.30;69.50;;;;;;5023752;28;890;-69
2022/11/07 10:30:30;;;;;;;;;;;21.30;69.70;;;;;;5041822;28;1231;-69
2022/11/07 10:33:28;;;;;;;;;;;21.30;69.90;;;;;;5045483;28;1436;-69
2022/11/07 10:35:55;;;;;;;;;;;21.30;70.10;;;;;;5019228;28;1975;-69
2022/11/07 10:38:21;;;;;;;;;;;21.40;70.30;;;;;;5040234;28;907;-69
2022/11/07 10:40:47;;;;;;;;;;;21.30;70.20;;;;;;5008907;28;1530;-70
2022/11/07 10:43:14;;;;;;;;;;;21.30;70.20;;;;;;5046211;28;895;-68
2022/11/07 10:45:40;;;;;;;;;;;21.30;70.30;;;;;;5023584;28;1310;-69
2022/11/07 10:48:05;;;;;;;;;;;21.30;70.60;;;;;;5044368;28;952;-70
2022/11/07 10:50:31;;;;;;;;;;;21.30;70.40;;;;;;5025795;28;4349;-68
2022/11/07 10:53:00;;;;;;;;;;;21.30;70.40;;;;;;5040297;28;876;-68
2022/11/07 10:55:26;;;;;;;;;;;21.30;70.50;;;;;;5042824;28;1753;-69
2022/11/07 10:58:02;;;;;;;;;;;21.30;70.50;;;;;;5043123;28;1902;-69
2022/11/07 11:00:28;;;;;;;;;;;21.30;70.60;;;;;;5043112;28;1094;-70
2022/11/07 11:02:55;;;;;;;;;;;21.30;70.50;;;;;;5022234;28;855;-69
2022/11/07 11:05:23;;;;;;;;;;;21.30;70.70;;;;;;5023953;28;1359;-69
2022/11/07 11:07:49;;;;;;;;;;;21.30;70.60;;;;;;5043086;28;1459;-69
2022/11/07 11:10:25;;;;;;;;;;;21.30;70.40;;;;;;5044762;28;898;-69
2022/11/07 11:12:50;;;;;;;;;;;21.30;70.80;;;;;;5021779;28;1370;-70
2022/11/07 11:15:18;;;;;;;;;;;21.30;70.90;;;;;;5042730;28;1351;-70
2022/11/07 11:17:44;;;;;;;;;;;21.30;70.80;;;;;;5042617;28;1973;-69
2022/11/07 11:20:29;;;;;;;;;;;21.20;70.80;;;;;;5041133;28;856;-69
2022/11/07 11:22:55;;;;;;;;;;;21.20;70.80;;;;;;5041651;28;856;-69
2022/11/07 11:25:20;;;;;;;;;;;21.20;71.00;;;;;;5034391;28;1354;-68
2022/11/07 11:27:47;;;;;;;;;;;21.20;70.90;;;;;;5038881;28;1025;-69
2022/11/07 11:30:16;;;;;;;;;;;21.20;70.90;;;;;;5023435;28;875;-69
2022/11/07 11:32:52;;;;;;;;;;;21.20;70.80;;;;;;5037874;28;1487;-70
2022/11/07 11:35:26;;;;;;;;;;;21.20;70.80;;;;;;5023476;28;1290;-69
2022/11/07 11:37:57;;;;;;;;;;;21.20;70.80;;;;;;5037146;28;1906;-69
2022/11/07 11:40:22;;;;;;;;;;;21.20;70.70;;;;;;5021732;28;844;-69
2022/11/07 11:42:47;;;;;;;;;;;21.20;70.80;;;;;;5041680;28;828;-68
2022/11/07 11:45:16;;;;;;;;;;;21.10;70.90;;;;;;5043137;28;839;-68
2022/11/07 11:47:43;;;;;;;;;;;21.10;71.10;;;;;;5039771;28;1006;-68
2022/11/07 11:50:11;;;;;;;;;;;21.20;71.40;;;;;;5020514;28;1181;-69
2022/11/07 11:52:36;;;;;;;;;;;21.10;71.90;;;;;;5040357;28;942;-69
2022/11/07 11:55:02;;;;;;;;;;;21.20;71.60;;;;;;5039856;28;967;-69
2022/11/07 11:57:46;;;;;;;;;;;21.20;71.60;;;;;;5020718;28;2001;-69
2022/11/07 12:00:15;;;;;;;;;;;21.20;71.60;;;;;;5041409;28;1175;-69
2022/11/07 12:03:07;;;;;;;;;;;21.10;71.50;;;;;;5023495;28;916;-69
2022/11/07 12:05:32;;;;;;;;;;;21.10;71.50;;;;;;5036354;28;1270;-69
2022/11/07 12:08:06;;;;;;;;;;;21.10;71.50;;;;;;5035729;28;1164;-69
2022/11/07 12:10:47;;;;;;;;;;;21.10;71.40;;;;;;5032672;28;1443;-68
2022/11/07 12:13:28;;;;;;;;;;;21.10;71.50;;;;;;5052526;28;1127;-69
2022/11/07 12:16:02;;;;;;;;;;;21.10;71.50;;;;;;5033169;28;1902;-69
2022/11/07 12:18:27;;;;;;;;;;;21.10;71.60;;;;;;5018072;28;892;-69
2022/11/07 12:21:14;;;;;;;;;;;21.10;71.60;;;;;;5037859;28;1075;-68
2022/11/07 12:23:49;;;;;;;;;;;21.10;71.70;;;;;;5021455;28;1089;-69
2022/11/07 12:26:18;;;;;;;;;;;21.10;71.70;;;;;;5018897;28;1358;-68
2022/11/07 12:28:46;;;;;;;;;;;21.10;71.80;;;;;;5032858;28;1141;-68
2022/11/07 12:31:15;;;;;;;;;;;21.10;71.90;;;;;;5017533;28;1429;-68
2022/11/07 12:33:52;;;;;;;;;;;21.10;71.90;;;;;;5024906;28;989;-68
2022/11/07 12:36:24;;;;;;;;;;;21.10;72.10;;;;;;5037760;28;1910;-69
2022/11/07 12:39:08;;;;;;;;;;;21.10;72.30;;;;;;5021435;28;802;-68
2022/11/07 12:41:38;;;;;;;;;;;21.10;72.40;;;;;;5039537;28;841;-69
2022/11/07 12:44:13;;;;;;;;;;;21.10;72.50;;;;;;5041477;28;1062;-69
2022/11/07 12:46:50;;;;;;;;;;;21.10;72.50;;;;;;5040257;28;1245;-69
2022/11/07 12:49:30;;;;;;;;;;;21.10;72.60;;;;;;5040124;28;1028;-69
2022/11/07 12:51:58;;;;;;;;;;;21.10;72.60;;;;;;5037757;28;998;-69
2022/11/07 12:54:37;;;;;;;;;;;21.10;72.60;;;;;;5042528;28;872;-68
2022/11/07 12:57:04;;;;;;;;;;;21.10;72.80;;;;;;5023232;28;1973;-69
2022/11/07 12:59:30;;;;;;;;;;;21.00;72.70;;;;;;5025780;28;847;-69
2022/11/07 13:01:59;;;;;;;;;;;21.00;72.80;;;;;;5024308;28;1201;-68
2022/11/07 13:04:35;;;;;;;;;;;21.00;72.80;;;;;;5039321;28;1198;-68
2022/11/07 13:07:03;;;;;;;;;;;21.00;70.90;;;;;;5020077;28;1264;-68
2022/11/07 13:09:32;;;;;;;;;;;21.00;67.90;;;;;;5022276;28;1158;-70
2022/11/07 13:11:57;;;;;;;;;;;20.90;65.30;;;;;;5039585;28;1263;-68
2022/11/07 13:14:22;;;;;;;;;;;20.80;62.30;;;;;;5038963;28;1149;-68
2022/11/07 13:16:52;;;;;;;;;;;20.80;61.50;;;;;;5042393;28;1899;-68
2022/11/07 13:19:36;;;;;;;;;;;20.70;60.70;;;;;;5023331;28;1307;-69
2022/11/07 13:22:05;;;;;;;;;;;20.70;59.50;;;;;;5036295;28;871;-69
2022/11/07 13:24:32;;;;;;;;;;;20.60;59.40;;;;;;5022094;28;1164;-68
2022/11/07 13:26:57;;;;;;;;;;;20.60;59.60;;;;;;5041883;28;1272;-71
2022/11/07 13:29:29;;;;;;;;;;;20.60;60.10;;;;;;5036671;28;1081;-68
2022/11/07 13:32:24;;;;;;;;;;;20.50;59.40;;;;;;5038591;28;1026;-68
2022/11/07 13:34:49;;;;;;;;;;;20.50;59.50;;;;;;5026523;28;1597;-68
2022/11/07 13:37:16;;;;;;;;;;;20.40;59.70;;;;;;5038379;28;1902;-68
2022/11/07 13:39:41;;;;;;;;;;;20.40;59.80;;;;;;5037946;28;1264;-69
2022/11/07 13:42:07;;;;;;;;;;;20.40;59.90;;;;;;5042865;28;1373;-70
2022/11/07 13:44:34;;;;;;;;;;;20.40;60.20;;;;;;5034217;28;1324;-69
2022/11/07 13:47:00;;;;;;;;;;;20.40;60.00;;;;;;5023116;28;1385;-69
2022/11/07 13:49:27;;;;;;;;;;;20.40;59.80;;;;;;5019844;28;1419;-69
2022/11/07 13:51:52;;;;;;;;;;;20.30;59.50;;;;;;5038257;28;986;-68
2022/11/07 13:54:26;;;;;;;;;;;20.30;59.30;;;;;;5023970;28;910;-68
2022/11/07 13:57:00;;;;;;;;;;;20.30;59.20;;;;;;5019085;28;1981;-68
2022/11/07 13:59:25;;;;;;;;;;;20.30;59.10;;;;;;5038784;28;1090;-68
2022/11/07 14:01:53;;;;;;;;;;;20.30;59.20;;;;;;5039448;28;1042;-68
2022/11/07 14:04:19;;;;;;;;;;;20.30;59.50;;;;;;5039177;28;1018;-69
2022/11/07 14:06:44;;;;;;;;;;;20.20;59.60;;;;;;5035696;28;2431;-69
2022/11/07 14:09:13;;;;;;;;;;;20.20;59.60;;;;;;5039314;28;1104;-68
2022/11/07 14:11:38;;;;;;;;;;;20.20;59.00;;;;;;5037972;28;968;-68
2022/11/07 14:14:05;;;;;;;;;;;20.20;59.20;;;;;;5037714;28;895;-68
2022/11/07 14:16:30;;;;;;;;;;;20.20;59.30;;;;;;5020111;28;1898;-68
2022/11/07 14:18:57;;;;;;;;;;;20.20;59.50;;;;;;5034677;28;820;-68
2022/11/07 14:21:25;;;;;;;;;;;20.20;60.00;;;;;;5039590;28;926;-69
2022/11/07 14:23:50;;;;;;;;;;;20.20;58.60;;;;;;5021702;28;1253;-70
2022/11/07 14:26:17;;;;;;;;;;;20.20;61.00;;;;;;5042554;28;1263;-70
2022/11/07 14:28:43;;;;;;;;;;;20.20;60.60;;;;;;5018920;28;852;-69
2022/11/07 14:31:16;;;;;;;;;;;20.20;59.50;;;;;;5037506;28;867;-69
2022/11/07 14:33:48;;;;;;;;;;;20.20;59.00;;;;;;5040015;28;986;-68
2022/11/07 14:36:14;;;;;;;;;;;20.20;59.00;;;;;;5035661;28;1965;-68
2022/11/07 14:38:52;;;;;;;;;;;20.20;59.20;;;;;;5036354;28;1014;-68
2022/11/07 14:41:18;;;;;;;;;;;20.20;59.50;;;;;;5017984;28;938;-68
2022/11/07 14:43:43;;;;;;;;;;;20.20;59.70;;;;;;5036414;28;1458;-69
2022/11/07 14:46:11;;;;;;;;;;;20.20;60.00;;;;;;5037496;28;1323;-69
2022/11/07 14:48:36;;;;;;;;;;;20.20;60.30;;;;;;5037585;28;934;-69